sensor_id;sensor_type;location;lat;lon;timestamp;P1;durP1;ratioP1;P2;durP2;ratioP2
81457;SDS011;70882;52.500;5.500;2023-07-31T00:00:58;1.87;;;1.17;;
81457;SDS011;70882;52.500;5.500;2023-07-31T00:03:23;2.73;;;0.87;;
81457;SDS011;70882;52.500;5.500;2023-07-31T00:05:49;1.30;;;1.10;;
81457;SDS011;70882;52.500;5.500;2023-07-31T00:08:14;1.93;;;1.30;;
81457;SDS011;70882;52.500;5.500;2023-07-31T00:10:39;1.70;;;0.90;;
81457;SDS011;70882;52.500;5.500;2023-07-31T00:13:04;1.67;;;1.27;;
81457;SDS011;70882;52.500;5.500;2023-07-31T00:15:29;2.03;;;1.70;;
81457;SDS011;70882;52.500;5.500;2023-07-31T00:17:55;1.97;;;1.20;;
81457;SDS011;70882;52.500;5.500;2023-07-31T00:20:20;1.50;;;1.40;;
81457;SDS011;70882;52.500;5.500;2023-07-31T00:22:45;1.70;;;1.50;;
81457;SDS011;70882;52.500;5.500;2023-07-31T00:25:11;2.33;;;1.20;;
81457;SDS011;70882;52.500;5.500;2023-07-31T00:27:36;2.25;;;1.52;;
81457;SDS011;70882;52.500;5.500;2023-07-31T00:30:01;2.90;;;1.38;;
81457;SDS011;70882;52.500;5.500;2023-07-31T00:32:27;1.85;;;1.60;;
81457;SDS011;70882;52.500;5.500;2023-07-31T00:34:52;3.73;;;1.23;;
81457;SDS011;70882;52.500;5.500;2023-07-31T00:37:17;1.87;;;1.30;;
81457;SDS011;70882;52.500;5.500;2023-07-31T00:39:42;1.73;;;1.23;;
81457;SDS011;70882;52.500;5.500;2023-07-31T00:42:08;1.80;;;1.17;;
81457;SDS011;70882;52.500;5.500;2023-07-31T00:44:33;1.67;;;1.20;;
81457;SDS011;70882;52.500;5.500;2023-07-31T00:46:58;2.95;;;1.27;;
81457;SDS011;70882;52.500;5.500;2023-07-31T00:49:24;2.00;;;1.52;;
81457;SDS011;70882;52.500;5.500;2023-07-31T00:51:50;2.35;;;1.60;;
81457;SDS011;70882;52.500;5.500;2023-07-31T00:54:15;3.33;;;1.52;;
81457;SDS011;70882;52.500;5.500;2023-07-31T00:56:40;4.63;;;1.33;;
81457;SDS011;70882;52.500;5.500;2023-07-31T00:59:06;7.20;;;1.85;;
81457;SDS011;70882;52.500;5.500;2023-07-31T01:01:31;8.23;;;1.83;;
81457;SDS011;70882;52.500;5.500;2023-07-31T01:03:57;6.60;;;2.03;;
81457;SDS011;70882;52.500;5.500;2023-07-31T01:06:27;7.07;;;2.23;;
81457;SDS011;70882;52.500;5.500;2023-07-31T01:09:03;10.35;;;3.30;;
81457;SDS011;70882;52.500;5.500;2023-07-31T01:11:29;9.57;;;2.55;;
81457;SDS011;70882;52.500;5.500;2023-07-31T01:13:55;10.30;;;2.78;;
81457;SDS011;70882;52.500;5.500;2023-07-31T01:16:20;7.70;;;2.33;;
81457;SDS011;70882;52.500;5.500;2023-07-31T01:18:46;5.00;;;2.42;;
81457;SDS011;70882;52.500;5.500;2023-07-31T01:23:57;8.68;;;2.80;;
81457;SDS011;70882;52.500;5.500;2023-07-31T01:26:28;10.48;;;2.90;;
81457;SDS011;70882;52.500;5.500;2023-07-31T01:31:21;7.77;;;2.57;;
81457;SDS011;70882;52.500;5.500;2023-07-31T01:33:48;12.95;;;2.60;;
81457;SDS011;70882;52.500;5.500;2023-07-31T01:36:13;8.65;;;2.40;;
81457;SDS011;70882;52.500;5.500;2023-07-31T01:38:39;8.50;;;2.95;;
81457;SDS011;70882;52.500;5.500;2023-07-31T01:41:04;9.57;;;2.97;;
81457;SDS011;70882;52.500;5.500;2023-07-31T01:43:29;16.83;;;3.33;;
81457;SDS011;70882;52.500;5.500;2023-07-31T01:45:54;9.00;;;3.10;;
81457;SDS011;70882;52.500;5.500;2023-07-31T01:48:19;9.67;;;3.20;;
81457;SDS011;70882;52.500;5.500;2023-07-31T01:50:46;7.47;;;3.57;;
81457;SDS011;70882;52.500;5.500;2023-07-31T01:53:11;9.63;;;3.25;;
81457;SDS011;70882;52.500;5.500;2023-07-31T01:55:38;7.00;;;3.05;;
81457;SDS011;70882;52.500;5.500;2023-07-31T01:58:03;9.05;;;2.72;;
81457;SDS011;70882;52.500;5.500;2023-07-31T02:00:28;9.00;;;3.17;;
81457;SDS011;70882;52.500;5.500;2023-07-31T02:02:54;12.40;;;3.45;;
81457;SDS011;70882;52.500;5.500;2023-07-31T02:05:19;10.70;;;3.03;;
81457;SDS011;70882;52.500;5.500;2023-07-31T02:07:44;15.37;;;3.90;;
81457;SDS011;70882;52.500;5.500;2023-07-31T02:10:09;11.93;;;3.03;;
81457;SDS011;70882;52.500;5.500;2023-07-31T02:12:35;14.80;;;3.63;;
81457;SDS011;70882;52.500;5.500;2023-07-31T02:15:00;12.93;;;3.57;;
81457;SDS011;70882;52.500;5.500;2023-07-31T02:17:25;13.13;;;3.70;;
81457;SDS011;70882;52.500;5.500;2023-07-31T02:19:51;11.63;;;3.83;;
81457;SDS011;70882;52.500;5.500;2023-07-31T02:22:16;12.50;;;3.70;;
81457;SDS011;70882;52.500;5.500;2023-07-31T02:24:41;11.07;;;3.20;;
81457;SDS011;70882;52.500;5.500;2023-07-31T02:27:06;12.30;;;4.37;;
81457;SDS011;70882;52.500;5.500;2023-07-31T02:29:31;14.17;;;3.33;;
81457;SDS011;70882;52.500;5.500;2023-07-31T02:31:57;11.03;;;3.00;;
81457;SDS011;70882;52.500;5.500;2023-07-31T02:34:22;12.03;;;3.70;;
81457;SDS011;70882;52.500;5.500;2023-07-31T02:36:47;13.90;;;4.13;;
81457;SDS011;70882;52.500;5.500;2023-07-31T02:39:13;11.88;;;4.57;;
81457;SDS011;70882;52.500;5.500;2023-07-31T02:41:38;15.80;;;3.83;;
81457;SDS011;70882;52.500;5.500;2023-07-31T02:44:03;16.43;;;4.47;;
81457;SDS011;70882;52.500;5.500;2023-07-31T02:46:28;17.13;;;5.25;;
81457;SDS011;70882;52.500;5.500;2023-07-31T02:48:53;22.30;;;4.67;;
81457;SDS011;70882;52.500;5.500;2023-07-31T02:51:19;14.97;;;4.53;;
81457;SDS011;70882;52.500;5.500;2023-07-31T02:53:46;20.13;;;5.15;;
81457;SDS011;70882;52.500;5.500;2023-07-31T02:56:11;22.83;;;5.27;;
81457;SDS011;70882;52.500;5.500;2023-07-31T02:58:36;22.03;;;4.50;;
81457;SDS011;70882;52.500;5.500;2023-07-31T03:01:01;19.73;;;5.00;;
81457;SDS011;70882;52.500;5.500;2023-07-31T03:03:28;23.20;;;5.50;;
81457;SDS011;70882;52.500;5.500;2023-07-31T03:05:53;20.25;;;5.25;;
81457;SDS011;70882;52.500;5.500;2023-07-31T03:08:19;15.30;;;4.60;;
81457;SDS011;70882;52.500;5.500;2023-07-31T03:10:44;25.13;;;4.77;;
81457;SDS011;70882;52.500;5.500;2023-07-31T03:13:09;17.57;;;4.53;;
81457;SDS011;70882;52.500;5.500;2023-07-31T03:15:34;18.08;;;4.85;;
81457;SDS011;70882;52.500;5.500;2023-07-31T03:17:59;24.33;;;5.53;;
81457;SDS011;70882;52.500;5.500;2023-07-31T03:20:25;15.87;;;5.50;;
81457;SDS011;70882;52.500;5.500;2023-07-31T03:22:50;17.30;;;4.87;;
81457;SDS011;70882;52.500;5.500;2023-07-31T03:25:15;18.07;;;5.97;;
81457;SDS011;70882;52.500;5.500;2023-07-31T03:27:40;23.13;;;5.90;;
81457;SDS011;70882;52.500;5.500;2023-07-31T03:30:06;17.17;;;5.33;;
81457;SDS011;70882;52.500;5.500;2023-07-31T03:32:31;19.13;;;5.30;;
81457;SDS011;70882;52.500;5.500;2023-07-31T03:34:57;17.63;;;5.67;;
81457;SDS011;70882;52.500;5.500;2023-07-31T03:37:22;19.25;;;4.97;;
81457;SDS011;70882;52.500;5.500;2023-07-31T03:39:47;21.53;;;5.57;;
81457;SDS011;70882;52.500;5.500;2023-07-31T03:42:12;24.87;;;6.37;;
81457;SDS011;70882;52.500;5.500;2023-07-31T03:44:38;24.13;;;5.67;;
81457;SDS011;70882;52.500;5.500;2023-07-31T03:47:03;19.67;;;5.00;;
81457;SDS011;70882;52.500;5.500;2023-07-31T03:49:28;22.48;;;5.65;;
81457;SDS011;70882;52.500;5.500;2023-07-31T03:51:54;14.80;;;5.57;;
81457;SDS011;70882;52.500;5.500;2023-07-31T03:54:19;22.70;;;5.77;;
81457;SDS011;70882;52.500;5.500;2023-07-31T03:56:44;19.77;;;5.17;;
81457;SDS011;70882;52.500;5.500;2023-07-31T03:59:09;22.97;;;5.37;;
81457;SDS011;70882;52.500;5.500;2023-07-31T04:01:34;26.27;;;5.67;;
81457;SDS011;70882;52.500;5.500;2023-07-31T04:04:00;25.63;;;5.07;;
81457;SDS011;70882;52.500;5.500;2023-07-31T04:06:25;25.07;;;6.07;;
81457;SDS011;70882;52.500;5.500;2023-07-31T04:08:50;24.23;;;4.83;;
81457;SDS011;70882;52.500;5.500;2023-07-31T04:11:16;24.80;;;5.40;;
81457;SDS011;70882;52.500;5.500;2023-07-31T04:13:42;20.03;;;5.20;;
81457;SDS011;70882;52.500;5.500;2023-07-31T04:16:07;21.03;;;5.47;;
81457;SDS011;70882;52.500;5.500;2023-07-31T04:18:33;17.80;;;4.63;;
81457;SDS011;70882;52.500;5.500;2023-07-31T04:20:58;22.00;;;5.13;;
81457;SDS011;70882;52.500;5.500;2023-07-31T04:23:24;24.10;;;5.55;;
81457;SDS011;70882;52.500;5.500;2023-07-31T04:25:49;25.95;;;5.32;;
81457;SDS011;70882;52.500;5.500;2023-07-31T04:28:14;24.73;;;5.80;;
81457;SDS011;70882;52.500;5.500;2023-07-31T04:30:40;21.02;;;5.85;;
81457;SDS011;70882;52.500;5.500;2023-07-31T04:33:05;24.47;;;5.77;;
81457;SDS011;70882;52.500;5.500;2023-07-31T04:35:30;18.00;;;4.97;;
81457;SDS011;70882;52.500;5.500;2023-07-31T04:37:55;20.63;;;6.63;;
81457;SDS011;70882;52.500;5.500;2023-07-31T04:40:20;20.87;;;5.90;;
81457;SDS011;70882;52.500;5.500;2023-07-31T04:42:46;30.83;;;5.72;;
81457;SDS011;70882;52.500;5.500;2023-07-31T04:45:11;23.23;;;6.53;;
81457;SDS011;70882;52.500;5.500;2023-07-31T04:47:37;25.90;;;6.37;;
81457;SDS011;70882;52.500;5.500;2023-07-31T04:50:02;23.97;;;6.23;;
81457;SDS011;70882;52.500;5.500;2023-07-31T04:52:27;26.48;;;6.25;;
81457;SDS011;70882;52.500;5.500;2023-07-31T04:54:52;21.33;;;5.60;;
81457;SDS011;70882;52.500;5.500;2023-07-31T04:57:18;22.70;;;5.17;;
81457;SDS011;70882;52.500;5.500;2023-07-31T04:59:43;18.38;;;5.53;;
81457;SDS011;70882;52.500;5.500;2023-07-31T05:02:08;24.10;;;5.60;;
81457;SDS011;70882;52.500;5.500;2023-07-31T05:04:34;18.48;;;5.55;;
81457;SDS011;70882;52.500;5.500;2023-07-31T05:06:59;17.10;;;5.37;;
81457;SDS011;70882;52.500;5.500;2023-07-31T05:09:24;23.50;;;5.60;;
81457;SDS011;70882;52.500;5.500;2023-07-31T05:11:50;18.15;;;4.53;;
81457;SDS011;70882;52.500;5.500;2023-07-31T05:14:15;20.80;;;5.80;;
81457;SDS011;70882;52.500;5.500;2023-07-31T05:16:41;22.75;;;4.85;;
81457;SDS011;70882;52.500;5.500;2023-07-31T05:19:06;15.10;;;4.53;;
81457;SDS011;70882;52.500;5.500;2023-07-31T05:21:31;20.40;;;5.53;;
81457;SDS011;70882;52.500;5.500;2023-07-31T05:23:57;20.83;;;5.17;;
81457;SDS011;70882;52.500;5.500;2023-07-31T05:26:22;21.10;;;5.65;;
81457;SDS011;70882;52.500;5.500;2023-07-31T05:28:47;16.80;;;5.78;;
81457;SDS011;70882;52.500;5.500;2023-07-31T05:31:12;21.10;;;4.80;;
81457;SDS011;70882;52.500;5.500;2023-07-31T05:33:38;14.00;;;5.33;;
81457;SDS011;70882;52.500;5.500;2023-07-31T05:36:03;21.40;;;5.60;;
81457;SDS011;70882;52.500;5.500;2023-07-31T05:38:28;16.37;;;4.77;;
81457;SDS011;70882;52.500;5.500;2023-07-31T05:40:53;16.63;;;5.35;;
81457;SDS011;70882;52.500;5.500;2023-07-31T05:43:18;17.63;;;5.70;;
81457;SDS011;70882;52.500;5.500;2023-07-31T05:45:44;16.30;;;5.40;;
81457;SDS011;70882;52.500;5.500;2023-07-31T05:48:09;16.90;;;5.30;;
81457;SDS011;70882;52.500;5.500;2023-07-31T05:50:34;14.03;;;5.17;;
81457;SDS011;70882;52.500;5.500;2023-07-31T05:52:59;12.23;;;3.77;;
81457;SDS011;70882;52.500;5.500;2023-07-31T05:55:25;9.10;;;4.07;;
81457;SDS011;70882;52.500;5.500;2023-07-31T05:57:54;8.48;;;3.33;;
81457;SDS011;70882;52.500;5.500;2023-07-31T06:00:19;8.10;;;3.42;;
81457;SDS011;70882;52.500;5.500;2023-07-31T06:02:46;9.38;;;3.55;;
81457;SDS011;70882;52.500;5.500;2023-07-31T06:05:11;8.07;;;3.25;;
81457;SDS011;70882;52.500;5.500;2023-07-31T06:07:36;6.73;;;3.20;;
81457;SDS011;70882;52.500;5.500;2023-07-31T06:10:01;7.10;;;3.13;;
81457;SDS011;70882;52.500;5.500;2023-07-31T06:12:28;5.68;;;2.78;;
81457;SDS011;70882;52.500;5.500;2023-07-31T06:14:54;5.82;;;2.50;;
81457;SDS011;70882;52.500;5.500;2023-07-31T06:17:19;4.57;;;2.17;;
81457;SDS011;70882;52.500;5.500;2023-07-31T06:19:44;5.72;;;2.20;;
81457;SDS011;70882;52.500;5.500;2023-07-31T06:22:09;4.10;;;2.47;;
81457;SDS011;70882;52.500;5.500;2023-07-31T06:24:35;5.10;;;1.90;;
81457;SDS011;70882;52.500;5.500;2023-07-31T06:27:00;3.67;;;2.00;;
81457;SDS011;70882;52.500;5.500;2023-07-31T06:29:28;6.18;;;2.20;;
81457;SDS011;70882;52.500;5.500;2023-07-31T06:31:53;5.65;;;2.47;;
81457;SDS011;70882;52.500;5.500;2023-07-31T06:34:19;1.73;;;1.50;;
81457;SDS011;70882;52.500;5.500;2023-07-31T06:36:44;3.55;;;1.92;;
81457;SDS011;70882;52.500;5.500;2023-07-31T06:39:10;6.10;;;2.15;;
81457;SDS011;70882;52.500;5.500;2023-07-31T06:41:35;4.33;;;2.13;;
81457;SDS011;70882;52.500;5.500;2023-07-31T06:44:00;5.50;;;2.27;;
81457;SDS011;70882;52.500;5.500;2023-07-31T06:46:25;3.93;;;1.63;;
81457;SDS011;70882;52.500;5.500;2023-07-31T06:48:51;3.27;;;2.30;;
81457;SDS011;70882;52.500;5.500;2023-07-31T06:51:16;4.27;;;2.20;;
81457;SDS011;70882;52.500;5.500;2023-07-31T06:53:41;3.47;;;2.10;;
81457;SDS011;70882;52.500;5.500;2023-07-31T06:56:07;3.72;;;1.90;;
81457;SDS011;70882;52.500;5.500;2023-07-31T06:58:32;4.30;;;1.87;;
81457;SDS011;70882;52.500;5.500;2023-07-31T07:00:57;3.47;;;1.87;;
81457;SDS011;70882;52.500;5.500;2023-07-31T07:03:22;3.50;;;1.90;;
81457;SDS011;70882;52.500;5.500;2023-07-31T07:05:47;3.00;;;1.87;;
81457;SDS011;70882;52.500;5.500;2023-07-31T07:08:13;2.10;;;1.60;;
81457;SDS011;70882;52.500;5.500;2023-07-31T07:10:38;3.30;;;1.55;;
81457;SDS011;70882;52.500;5.500;2023-07-31T07:13:03;3.13;;;1.63;;
81457;SDS011;70882;52.500;5.500;2023-07-31T07:15:28;3.83;;;2.00;;
81457;SDS011;70882;52.500;5.500;2023-07-31T07:17:54;3.03;;;1.52;;
81457;SDS011;70882;52.500;5.500;2023-07-31T07:20:19;2.73;;;1.90;;
81457;SDS011;70882;52.500;5.500;2023-07-31T07:22:45;3.42;;;1.80;;
81457;SDS011;70882;52.500;5.500;2023-07-31T07:25:11;3.13;;;1.70;;
81457;SDS011;70882;52.500;5.500;2023-07-31T07:27:36;4.57;;;2.17;;
81457;SDS011;70882;52.500;5.500;2023-07-31T07:30:01;2.10;;;1.40;;
81457;SDS011;70882;52.500;5.500;2023-07-31T07:32:27;1.95;;;1.70;;
81457;SDS011;70882;52.500;5.500;2023-07-31T07:34:52;4.93;;;1.40;;
81457;SDS011;70882;52.500;5.500;2023-07-31T07:37:17;1.67;;;1.23;;
81457;SDS011;70882;52.500;5.500;2023-07-31T07:39:42;1.47;;;1.00;;
81457;SDS011;70882;52.500;5.500;2023-07-31T07:42:08;2.55;;;1.27;;
81457;SDS011;70882;52.500;5.500;2023-07-31T07:44:33;2.28;;;1.30;;
81457;SDS011;70882;52.500;5.500;2023-07-31T07:46:58;2.07;;;1.23;;
81457;SDS011;70882;52.500;5.500;2023-07-31T07:49:23;1.10;;;1.00;;
81457;SDS011;70882;52.500;5.500;2023-07-31T07:51:49;2.40;;;1.00;;
81457;SDS011;70882;52.500;5.500;2023-07-31T07:54:14;2.33;;;1.27;;
81457;SDS011;70882;52.500;5.500;2023-07-31T07:56:41;1.27;;;0.98;;
81457;SDS011;70882;52.500;5.500;2023-07-31T07:59:07;1.38;;;1.25;;
81457;SDS011;70882;52.500;5.500;2023-07-31T08:01:32;1.90;;;0.70;;
81457;SDS011;70882;52.500;5.500;2023-07-31T08:03:57;2.00;;;1.20;;
81457;SDS011;70882;52.500;5.500;2023-07-31T08:06:22;1.30;;;1.17;;
81457;SDS011;70882;52.500;5.500;2023-07-31T08:08:48;1.63;;;1.00;;
81457;SDS011;70882;52.500;5.500;2023-07-31T08:11:13;1.23;;;1.02;;
81457;SDS011;70882;52.500;5.500;2023-07-31T08:13:38;1.90;;;1.00;;
81457;SDS011;70882;52.500;5.500;2023-07-31T08:16:04;1.77;;;1.10;;
81457;SDS011;70882;52.500;5.500;2023-07-31T08:18:30;1.90;;;1.05;;
81457;SDS011;70882;52.500;5.500;2023-07-31T08:20:55;1.58;;;1.02;;
81457;SDS011;70882;52.500;5.500;2023-07-31T08:23:20;1.30;;;0.90;;
81457;SDS011;70882;52.500;5.500;2023-07-31T08:25:46;1.30;;;1.20;;
81457;SDS011;70882;52.500;5.500;2023-07-31T08:28:11;1.30;;;1.10;;
81457;SDS011;70882;52.500;5.500;2023-07-31T08:30:37;1.00;;;0.90;;
81457;SDS011;70882;52.500;5.500;2023-07-31T08:33:02;1.53;;;1.03;;
81457;SDS011;70882;52.500;5.500;2023-07-31T08:35:27;1.17;;;1.08;;
81457;SDS011;70882;52.500;5.500;2023-07-31T08:37:53;1.38;;;0.95;;
81457;SDS011;70882;52.500;5.500;2023-07-31T08:40:18;1.10;;;1.00;;
81457;SDS011;70882;52.500;5.500;2023-07-31T08:42:47;0.93;;;0.50;;
81457;SDS011;70882;52.500;5.500;2023-07-31T08:45:13;0.50;;;0.50;;
81457;SDS011;70882;52.500;5.500;2023-07-31T08:47:39;1.00;;;0.90;;
81457;SDS011;70882;52.500;5.500;2023-07-31T08:50:04;1.05;;;0.63;;
81457;SDS011;70882;52.500;5.500;2023-07-31T08:52:30;1.15;;;0.60;;
81457;SDS011;70882;52.500;5.500;2023-07-31T08:54:55;0.60;;;0.60;;
81457;SDS011;70882;52.500;5.500;2023-07-31T08:57:21;0.88;;;0.70;;
81457;SDS011;70882;52.500;5.500;2023-07-31T08:59:46;0.60;;;0.60;;
81457;SDS011;70882;52.500;5.500;2023-07-31T09:02:11;0.60;;;0.60;;
81457;SDS011;70882;52.500;5.500;2023-07-31T09:04:38;0.50;;;0.50;;
81457;SDS011;70882;52.500;5.500;2023-07-31T09:07:04;0.63;;;0.63;;
81457;SDS011;70882;52.500;5.500;2023-07-31T09:09:30;0.63;;;0.63;;
81457;SDS011;70882;52.500;5.500;2023-07-31T09:11:56;0.50;;;0.50;;
81457;SDS011;70882;52.500;5.500;2023-07-31T09:14:22;0.57;;;0.55;;
81457;SDS011;70882;52.500;5.500;2023-07-31T09:16:56;0.70;;;0.70;;
81457;SDS011;70882;52.500;5.500;2023-07-31T09:19:25;1.17;;;0.50;;
81457;SDS011;70882;52.500;5.500;2023-07-31T09:21:50;0.60;;;0.60;;
81457;SDS011;70882;52.500;5.500;2023-07-31T09:24:25;0.60;;;0.60;;
81457;SDS011;70882;52.500;5.500;2023-07-31T09:26:51;0.70;;;0.60;;
81457;SDS011;70882;52.500;5.500;2023-07-31T09:29:19;1.00;;;0.98;;
81457;SDS011;70882;52.500;5.500;2023-07-31T09:31:44;0.95;;;0.82;;
81457;SDS011;70882;52.500;5.500;2023-07-31T09:34:10;1.50;;;1.05;;
81457;SDS011;70882;52.500;5.500;2023-07-31T09:36:49;1.05;;;0.80;;
81457;SDS011;70882;52.500;5.500;2023-07-31T09:39:15;1.25;;;0.82;;
81457;SDS011;70882;52.500;5.500;2023-07-31T09:41:47;0.60;;;0.60;;
81457;SDS011;70882;52.500;5.500;2023-07-31T09:44:13;1.02;;;0.50;;
81457;SDS011;70882;52.500;5.500;2023-07-31T09:46:38;0.60;;;0.60;;
81457;SDS011;70882;52.500;5.500;2023-07-31T09:49:04;0.80;;;0.60;;
81457;SDS011;70882;52.500;5.500;2023-07-31T09:51:30;0.60;;;0.60;;
81457;SDS011;70882;52.500;5.500;2023-07-31T09:53:56;1.05;;;0.60;;
81457;SDS011;70882;52.500;5.500;2023-07-31T09:56:21;0.57;;;0.57;;
81457;SDS011;70882;52.500;5.500;2023-07-31T09:58:47;1.05;;;0.47;;
81457;SDS011;70882;52.500;5.500;2023-07-31T10:01:13;1.20;;;0.60;;
81457;SDS011;70882;52.500;5.500;2023-07-31T10:03:38;1.08;;;0.60;;
81457;SDS011;70882;52.500;5.500;2023-07-31T10:06:04;1.55;;;0.77;;
81457;SDS011;70882;52.500;5.500;2023-07-31T10:08:30;1.67;;;0.95;;
81457;SDS011;70882;52.500;5.500;2023-07-31T10:11:00;2.25;;;0.90;;
81457;SDS011;70882;52.500;5.500;2023-07-31T10:13:27;1.98;;;0.90;;
81457;SDS011;70882;52.500;5.500;2023-07-31T10:15:53;1.83;;;1.00;;
81457;SDS011;70882;52.500;5.500;2023-07-31T10:18:18;3.42;;;1.40;;
81457;SDS011;70882;52.500;5.500;2023-07-31T10:20:45;2.08;;;1.50;;
81457;SDS011;70882;52.500;5.500;2023-07-31T10:23:10;9.48;;;1.80;;
81457;SDS011;70882;52.500;5.500;2023-07-31T10:25:37;6.95;;;1.30;;
81457;SDS011;70882;52.500;5.500;2023-07-31T10:28:03;3.13;;;1.40;;
81457;SDS011;70882;52.500;5.500;2023-07-31T10:30:29;5.35;;;1.67;;
81457;SDS011;70882;52.500;5.500;2023-07-31T10:32:55;3.20;;;1.52;;
81457;SDS011;70882;52.500;5.500;2023-07-31T10:35:21;5.32;;;1.48;;
81457;SDS011;70882;52.500;5.500;2023-07-31T10:37:49;2.97;;;1.42;;
81457;SDS011;70882;52.500;5.500;2023-07-31T10:40:25;4.37;;;1.50;;
81457;SDS011;70882;52.500;5.500;2023-07-31T10:48:02;3.70;;;1.33;;
81457;SDS011;70882;52.500;5.500;2023-07-31T10:50:28;5.32;;;1.77;;
81457;SDS011;70882;52.500;5.500;2023-07-31T10:52:54;5.03;;;1.55;;
81457;SDS011;70882;52.500;5.500;2023-07-31T10:55:32;5.22;;;1.40;;
81457;SDS011;70882;52.500;5.500;2023-07-31T10:58:05;6.07;;;1.77;;
81457;SDS011;70882;52.500;5.500;2023-07-31T11:00:31;9.43;;;1.70;;
81457;SDS011;70882;52.500;5.500;2023-07-31T11:03:15;4.73;;;2.10;;
81457;SDS011;70882;52.500;5.500;2023-07-31T11:10:43;7.50;;;1.95;;
81457;SDS011;70882;52.500;5.500;2023-07-31T11:13:08;9.32;;;2.25;;
81457;SDS011;70882;52.500;5.500;2023-07-31T11:15:34;7.88;;;1.90;;
81457;SDS011;70882;52.500;5.500;2023-07-31T11:18:02;7.73;;;2.10;;
81457;SDS011;70882;52.500;5.500;2023-07-31T11:20:33;9.93;;;2.00;;
81457;SDS011;70882;52.500;5.500;2023-07-31T11:23:00;6.15;;;1.98;;
81457;SDS011;70882;52.500;5.500;2023-07-31T11:25:26;7.70;;;1.88;;
81457;SDS011;70882;52.500;5.500;2023-07-31T11:27:51;6.22;;;1.67;;
81457;SDS011;70882;52.500;5.500;2023-07-31T11:30:19;4.25;;;1.90;;
81457;SDS011;70882;52.500;5.500;2023-07-31T11:32:45;5.82;;;2.00;;
81457;SDS011;70882;52.500;5.500;2023-07-31T11:35:13;6.45;;;1.77;;
81457;SDS011;70882;52.500;5.500;2023-07-31T11:37:42;7.47;;;2.00;;
81457;SDS011;70882;52.500;5.500;2023-07-31T11:40:08;8.93;;;2.47;;
81457;SDS011;70882;52.500;5.500;2023-07-31T11:42:34;5.15;;;1.92;;
81457;SDS011;70882;52.500;5.500;2023-07-31T11:45:02;10.25;;;2.38;;
81457;SDS011;70882;52.500;5.500;2023-07-31T11:47:27;6.45;;;2.10;;
81457;SDS011;70882;52.500;5.500;2023-07-31T11:49:52;5.43;;;1.53;;
81457;SDS011;70882;52.500;5.500;2023-07-31T11:52:18;5.13;;;1.90;;
81457;SDS011;70882;52.500;5.500;2023-07-31T11:54:45;10.60;;;2.38;;
81457;SDS011;70882;52.500;5.500;2023-07-31T11:57:11;7.85;;;2.33;;
81457;SDS011;70882;52.500;5.500;2023-07-31T11:59:37;8.38;;;1.90;;
81457;SDS011;70882;52.500;5.500;2023-07-31T12:02:02;11.40;;;2.47;;
81457;SDS011;70882;52.500;5.500;2023-07-31T12:04:28;9.63;;;2.75;;
81457;SDS011;70882;52.500;5.500;2023-07-31T12:06:53;6.60;;;2.50;;
81457;SDS011;70882;52.500;5.500;2023-07-31T12:09:19;9.10;;;2.00;;
81457;SDS011;70882;52.500;5.500;2023-07-31T12:11:45;9.35;;;2.03;;
81457;SDS011;70882;52.500;5.500;2023-07-31T12:14:29;9.80;;;2.38;;
81457;SDS011;70882;52.500;5.500;2023-07-31T12:16:55;6.80;;;2.22;;
81457;SDS011;70882;52.500;5.500;2023-07-31T12:19:20;6.10;;;2.30;;
81457;SDS011;70882;52.500;5.500;2023-07-31T12:21:46;7.00;;;2.20;;
81457;SDS011;70882;52.500;5.500;2023-07-31T12:24:11;8.40;;;2.10;;
81457;SDS011;70882;52.500;5.500;2023-07-31T12:26:36;9.43;;;2.10;;
81457;SDS011;70882;52.500;5.500;2023-07-31T12:29:01;7.90;;;2.13;;
81457;SDS011;70882;52.500;5.500;2023-07-31T12:31:27;3.40;;;1.83;;
81457;SDS011;70882;52.500;5.500;2023-07-31T12:33:53;7.03;;;2.00;;
81457;SDS011;70882;52.500;5.500;2023-07-31T12:36:21;9.18;;;2.35;;
81457;SDS011;70882;52.500;5.500;2023-07-31T12:38:46;5.45;;;1.90;;
81457;SDS011;70882;52.500;5.500;2023-07-31T12:41:12;3.73;;;1.80;;
81457;SDS011;70882;52.500;5.500;2023-07-31T12:43:38;6.68;;;1.65;;
81457;SDS011;70882;52.500;5.500;2023-07-31T12:46:04;7.45;;;1.92;;
81457;SDS011;70882;52.500;5.500;2023-07-31T12:48:29;6.93;;;1.95;;
81457;SDS011;70882;52.500;5.500;2023-07-31T12:50:55;5.93;;;2.13;;
81457;SDS011;70882;52.500;5.500;2023-07-31T12:53:20;6.40;;;2.53;;
81457;SDS011;70882;52.500;5.500;2023-07-31T12:55:46;6.13;;;2.08;;
81457;SDS011;70882;52.500;5.500;2023-07-31T12:58:11;8.05;;;2.67;;
81457;SDS011;70882;52.500;5.500;2023-07-31T13:00:36;6.30;;;2.00;;
81457;SDS011;70882;52.500;5.500;2023-07-31T13:03:02;8.73;;;2.27;;
81457;SDS011;70882;52.500;5.500;2023-07-31T13:05:28;4.38;;;2.38;;
81457;SDS011;70882;52.500;5.500;2023-07-31T13:07:53;8.35;;;2.03;;
81457;SDS011;70882;52.500;5.500;2023-07-31T13:10:19;6.40;;;1.92;;
81457;SDS011;70882;52.500;5.500;2023-07-31T13:12:44;4.43;;;1.60;;
81457;SDS011;70882;52.500;5.500;2023-07-31T13:15:10;5.47;;;1.95;;
81457;SDS011;70882;52.500;5.500;2023-07-31T13:17:35;8.45;;;2.20;;
81457;SDS011;70882;52.500;5.500;2023-07-31T13:20:00;3.80;;;1.30;;
81457;SDS011;70882;52.500;5.500;2023-07-31T13:22:26;5.43;;;1.65;;
81457;SDS011;70882;52.500;5.500;2023-07-31T13:24:51;5.95;;;1.70;;
81457;SDS011;70882;52.500;5.500;2023-07-31T13:27:16;4.77;;;1.80;;
81457;SDS011;70882;52.500;5.500;2023-07-31T13:29:44;6.05;;;1.77;;
81457;SDS011;70882;52.500;5.500;2023-07-31T13:32:09;6.32;;;1.90;;
81457;SDS011;70882;52.500;5.500;2023-07-31T13:34:34;6.27;;;2.27;;
81457;SDS011;70882;52.500;5.500;2023-07-31T13:36:59;6.73;;;1.97;;
81457;SDS011;70882;52.500;5.500;2023-07-31T13:39:25;3.77;;;1.60;;
81457;SDS011;70882;52.500;5.500;2023-07-31T13:41:50;3.23;;;1.43;;
81457;SDS011;70882;52.500;5.500;2023-07-31T13:44:15;6.70;;;2.40;;
81457;SDS011;70882;52.500;5.500;2023-07-31T13:46:40;7.03;;;1.57;;
81457;SDS011;70882;52.500;5.500;2023-07-31T13:49:06;7.32;;;2.30;;
81457;SDS011;70882;52.500;5.500;2023-07-31T13:51:31;6.37;;;1.70;;
81457;SDS011;70882;52.500;5.500;2023-07-31T13:53:56;5.63;;;2.57;;
81457;SDS011;70882;52.500;5.500;2023-07-31T13:56:22;10.33;;;2.03;;
81457;SDS011;70882;52.500;5.500;2023-07-31T13:58:47;7.20;;;1.88;;
81457;SDS011;70882;52.500;5.500;2023-07-31T14:01:12;4.57;;;1.70;;
81457;SDS011;70882;52.500;5.500;2023-07-31T14:03:37;7.47;;;2.17;;
81457;SDS011;70882;52.500;5.500;2023-07-31T14:06:03;5.63;;;1.57;;
81457;SDS011;70882;52.500;5.500;2023-07-31T14:08:28;6.43;;;1.88;;
81457;SDS011;70882;52.500;5.500;2023-07-31T14:10:55;6.75;;;2.40;;
81457;SDS011;70882;52.500;5.500;2023-07-31T14:13:20;4.63;;;1.60;;
81457;SDS011;70882;52.500;5.500;2023-07-31T14:15:45;4.90;;;1.80;;
81457;SDS011;70882;52.500;5.500;2023-07-31T14:18:10;8.30;;;1.97;;
81457;SDS011;70882;52.500;5.500;2023-07-31T14:20:36;6.35;;;1.77;;
81457;SDS011;70882;52.500;5.500;2023-07-31T14:23:04;4.90;;;1.83;;
81457;SDS011;70882;52.500;5.500;2023-07-31T14:25:29;4.25;;;1.58;;
81457;SDS011;70882;52.500;5.500;2023-07-31T14:27:54;5.72;;;1.45;;
81457;SDS011;70882;52.500;5.500;2023-07-31T14:30:20;4.73;;;1.70;;
81457;SDS011;70882;52.500;5.500;2023-07-31T14:32:45;4.82;;;1.58;;
81457;SDS011;70882;52.500;5.500;2023-07-31T14:35:11;4.50;;;1.98;;
81457;SDS011;70882;52.500;5.500;2023-07-31T14:37:43;4.72;;;1.75;;
81457;SDS011;70882;52.500;5.500;2023-07-31T14:40:09;3.75;;;1.85;;
81457;SDS011;70882;52.500;5.500;2023-07-31T14:42:38;4.18;;;2.10;;
81457;SDS011;70882;52.500;5.500;2023-07-31T14:45:03;5.95;;;2.20;;
81457;SDS011;70882;52.500;5.500;2023-07-31T14:47:29;4.22;;;1.90;;
81457;SDS011;70882;52.500;5.500;2023-07-31T14:49:56;3.03;;;2.05;;